createdAt,value
2018-04-14T00:01:15.495Z,7.60
2018-04-14T00:03:43.639Z,7.60
2018-04-14T00:06:12.580Z,7.30
2018-04-14T00:08:41.538Z,7.30
2018-04-14T00:11:09.707Z,7.30
2018-04-14T00:13:38.619Z,7.10
2018-04-14T00:16:06.788Z,7.10
2018-04-14T00:18:35.004Z,7.20
2018-04-14T00:21:03.179Z,7.00
2018-04-14T00:23:31.345Z,7.10
2018-04-14T00:25:59.506Z,7.10
2018-04-14T00:28:27.703Z,7.00
2018-04-14T00:30:55.851Z,7.00
2018-04-14T00:33:24.028Z,7.00
2018-04-14T00:35:52.179Z,7.00
2018-04-14T00:38:20.419Z,7.00
2018-04-14T00:40:48.559Z,6.80
2018-04-14T00:43:16.739Z,6.70
2018-04-14T00:45:44.879Z,6.80
2018-04-14T00:48:13.138Z,7.00
2018-04-14T00:50:42.039Z,6.80
2018-04-14T00:53:22.084Z,6.80
2018-04-14T00:55:50.224Z,6.60
2018-04-14T00:58:18.530Z,6.80
2018-04-14T01:00:46.692Z,7.10
2018-04-14T01:03:14.885Z,7.00
2018-04-14T01:05:43.044Z,6.90
2018-04-14T01:08:11.330Z,6.90
2018-04-14T01:10:39.499Z,6.70
2018-04-14T01:13:07.683Z,6.80
2018-04-14T01:15:35.863Z,6.90
2018-04-14T01:18:04.134Z,6.70
2018-04-14T01:20:32.306Z,6.70
2018-04-14T01:23:00.506Z,6.70
2018-04-14T01:25:28.678Z,6.80
2018-04-14T01:27:56.861Z,6.70
2018-04-14T01:30:25.035Z,6.70
2018-04-14T01:32:53.223Z,6.60
2018-04-14T01:35:21.390Z,6.60
2018-04-14T01:37:49.575Z,6.40
2018-04-14T01:40:17.742Z,6.40
2018-04-14T01:42:45.943Z,6.50
2018-04-14T01:45:14.883Z,6.50
2018-04-14T01:47:43.154Z,6.50
2018-04-14T01:50:11.325Z,6.50
2018-04-14T01:52:39.498Z,6.20
2018-04-14T01:55:07.678Z,6.40
2018-04-14T01:57:35.939Z,6.50
2018-04-14T02:00:04.130Z,6.50
2018-04-14T02:02:32.305Z,6.20
2018-04-14T02:05:00.499Z,6.20
2018-04-14T02:07:28.742Z,6.30
2018-04-14T02:09:56.932Z,6.10
2018-04-14T02:12:25.103Z,6.20
2018-04-14T02:14:53.293Z,5.90
2018-04-14T02:17:21.532Z,5.60
2018-04-14T02:19:49.730Z,5.30
2018-04-14T02:22:17.911Z,5.70
2018-04-14T02:24:46.107Z,5.70
2018-04-14T02:27:14.380Z,5.90
2018-04-14T02:29:42.570Z,6.00
2018-04-14T02:32:11.519Z,5.70
2018-04-14T02:34:39.835Z,5.70
2018-04-14T02:37:08.655Z,5.70
2018-04-14T02:39:36.849Z,5.80
2018-04-14T02:42:05.024Z,5.90
2018-04-14T02:44:33.231Z,5.90
2018-04-14T02:47:01.473Z,5.90
2018-04-14T02:49:29.662Z,5.90
2018-04-14T02:51:57.845Z,5.60
2018-04-14T02:54:26.052Z,5.60
2018-04-14T02:56:54.276Z,5.40
2018-04-14T02:59:22.475Z,5.60
2018-04-14T03:01:50.645Z,5.60
2018-04-14T03:04:18.817Z,5.70
2018-04-14T03:06:47.062Z,5.80
2018-04-14T03:09:15.257Z,5.70
2018-04-14T03:11:43.442Z,5.50
2018-04-14T03:14:11.633Z,5.60
2018-04-14T03:16:40.023Z,5.70
2018-04-14T03:19:08.220Z,5.80
2018-04-14T03:21:37.166Z,5.60
2018-04-14T03:24:05.362Z,5.60
2018-04-14T03:26:33.579Z,5.60
2018-04-14T03:29:01.777Z,5.40
2018-04-14T03:31:29.982Z,5.20
2018-04-14T03:33:58.154Z,5.40
2018-04-14T03:36:26.411Z,5.40
2018-04-14T03:38:54.587Z,5.50
2018-04-14T03:41:22.776Z,5.40
2018-04-14T03:43:50.959Z,5.30
2018-04-14T03:46:19.207Z,5.30
2018-04-14T03:48:47.397Z,5.10
2018-04-14T03:51:15.578Z,4.90
2018-04-14T03:53:43.754Z,5.00
2018-04-14T03:56:12.104Z,4.90
2018-04-14T03:58:40.277Z,5.00
2018-04-14T04:01:08.474Z,4.90
2018-04-14T04:03:36.671Z,5.10
2018-04-14T04:06:04.892Z,5.20
2018-04-14T04:08:33.062Z,5.30
2018-04-14T04:11:01.270Z,5.20
2018-04-14T04:13:29.445Z,4.90
2018-04-14T04:15:58.105Z,4.90
2018-04-14T04:18:38.222Z,5.00
2018-04-14T04:21:19.241Z,5.00
2018-04-14T04:23:59.407Z,5.00
2018-04-14T04:26:27.671Z,5.00
2018-04-14T04:28:56.715Z,5.00
2018-04-14T04:31:24.910Z,5.10
2018-04-14T04:33:53.842Z,4.70
2018-04-14T04:36:22.132Z,4.70
2018-04-14T04:38:50.324Z,5.00
2018-04-14T04:41:18.519Z,5.00
2018-04-14T04:43:47.459Z,4.80
2018-04-14T04:46:15.733Z,4.80
2018-04-14T04:48:43.966Z,4.80
2018-04-14T04:51:12.125Z,5.00
2018-04-14T04:53:41.069Z,4.90
2018-04-14T04:56:09.283Z,4.90
2018-04-14T04:58:38.964Z,5.10
2018-04-14T05:01:07.154Z,5.10
2018-04-14T05:03:35.327Z,5.20
2018-04-14T05:06:03.658Z,5.20
2018-04-14T05:08:31.857Z,5.20
2018-04-14T05:11:00.062Z,5.00
2018-04-14T05:13:28.254Z,5.00
2018-04-14T05:15:57.200Z,5.10
2018-04-14T05:18:25.402Z,5.10
2018-04-14T05:20:53.590Z,5.30
2018-04-14T05:23:22.554Z,5.20
2018-04-14T05:25:50.727Z,5.20
2018-04-14T05:28:18.928Z,5.40
2018-04-14T05:30:47.117Z,5.30
2018-04-14T05:33:16.069Z,5.20
2018-04-14T05:35:44.310Z,5.20
2018-04-14T05:38:12.507Z,5.30
2018-04-14T05:40:40.685Z,5.30
2018-04-14T05:43:08.887Z,5.30
2018-04-14T05:45:37.116Z,5.70
2018-04-14T05:48:05.310Z,5.80
2018-04-14T05:50:33.498Z,5.90
2018-04-14T05:53:01.694Z,6.00
2018-04-14T05:55:29.901Z,6.00
2018-04-14T05:57:58.109Z,6.20
2018-04-14T06:00:26.286Z,6.30
2018-04-14T06:02:54.474Z,6.60
2018-04-14T06:05:22.733Z,6.40
2018-04-14T06:07:50.922Z,6.50
2018-04-14T06:10:19.102Z,6.50
2018-04-14T06:12:47.303Z,6.70
2018-04-14T06:15:15.658Z,7.00
2018-04-14T06:17:43.857Z,7.10
2018-04-14T06:20:12.800Z,7.30
2018-04-14T06:22:40.998Z,7.30
2018-04-14T06:25:09.230Z,7.50
2018-04-14T06:27:37.406Z,7.70
2018-04-14T06:30:05.602Z,7.80
2018-04-14T06:32:33.793Z,8.10
2018-04-14T06:35:03.423Z,8.20
2018-04-14T06:37:31.611Z,8.40
2018-04-14T06:40:00.561Z,9.00
2018-04-14T06:42:28.741Z,9.00
2018-04-14T06:44:57.019Z,9.20
2018-04-14T06:47:25.210Z,9.40
2018-04-14T06:49:53.416Z,9.50
2018-04-14T06:52:21.582Z,9.60
2018-04-14T06:54:49.810Z,9.80
2018-04-14T06:57:17.983Z,9.80
2018-04-14T06:59:46.178Z,9.80
2018-04-14T07:02:14.358Z,10.20
2018-04-14T07:04:43.556Z,10.60
2018-04-14T07:07:11.742Z,10.60
2018-04-14T07:09:40.710Z,10.90
2018-04-14T07:12:08.899Z,10.90
2018-04-14T07:14:37.138Z,11.00
2018-04-14T07:17:05.322Z,11.10
2018-04-14T07:19:33.511Z,11.40
2018-04-14T07:22:01.682Z,11.50
2018-04-14T07:24:29.886Z,11.30
2018-04-14T07:26:58.824Z,11.50
2018-04-14T07:29:27.019Z,11.50
2018-04-14T07:31:55.192Z,11.50
2018-04-14T07:34:23.664Z,11.90
2018-04-14T07:36:51.840Z,11.80
2018-04-14T07:39:20.026Z,11.90
2018-04-14T07:41:48.203Z,11.90
2018-04-14T07:44:16.492Z,12.00
2018-04-14T07:46:44.647Z,12.20
2018-04-14T07:49:12.855Z,12.30
2018-04-14T07:51:41.847Z,12.80
2018-04-14T07:54:10.034Z,12.80
2018-04-14T07:56:38.230Z,13.10
2018-04-14T07:59:06.403Z,13.10
2018-04-14T08:01:34.598Z,13.40
2018-04-14T08:04:10.526Z,13.50
2018-04-14T08:06:48.492Z,13.50
2018-04-14T08:09:21.455Z,13.60
2018-04-14T08:12:04.603Z,13.70
2018-04-14T08:14:32.945Z,13.80
2018-04-14T08:17:05.624Z,14.00
2018-04-14T08:19:39.583Z,14.00
2018-04-14T08:22:13.963Z,14.10
2018-04-14T08:24:44.748Z,14.30
2018-04-14T08:27:12.907Z,14.30
2018-04-14T08:29:41.076Z,14.30
2018-04-14T08:32:11.470Z,14.70
2018-04-14T08:34:42.492Z,14.70
2018-04-14T08:37:11.610Z,15.00
2018-04-14T08:39:39.881Z,15.30
2018-04-14T08:42:08.077Z,15.40
2018-04-14T08:44:37.054Z,15.30
2018-04-14T08:47:05.263Z,15.30
2018-04-14T08:49:33.461Z,15.60
2018-04-14T08:52:02.895Z,15.90
2018-04-14T08:54:31.099Z,15.60
2018-04-14T08:56:59.316Z,16.00
2018-04-14T08:59:27.496Z,16.00
2018-04-14T09:01:55.734Z,16.00
2018-04-14T09:04:24.684Z,16.40
2018-04-14T09:06:52.889Z,16.40
2018-04-14T09:09:21.078Z,16.70
2018-04-14T09:11:50.057Z,16.40
2018-04-14T09:14:19.019Z,16.60
2018-04-14T09:16:47.217Z,16.60
2018-04-14T09:19:15.402Z,17.00
2018-04-14T09:21:44.361Z,16.70
2018-04-14T09:24:12.540Z,16.70
2018-04-14T09:26:40.738Z,17.10
2018-04-14T09:29:10.419Z,17.00
2018-04-14T09:31:38.617Z,17.10
2018-04-14T09:34:07.587Z,17.40
2018-04-14T09:36:35.799Z,17.30
2018-04-14T09:39:03.978Z,17.70
2018-04-14T09:41:32.174Z,17.90
2018-04-14T09:44:00.354Z,17.70
2018-04-14T09:46:30.419Z,17.90
2018-04-14T09:48:58.602Z,17.90
2018-04-14T09:51:26.808Z,18.00
2018-04-14T09:53:55.022Z,18.40
2018-04-14T09:56:23.233Z,18.60
2018-04-14T09:58:51.406Z,18.60
2018-04-14T10:01:25.339Z,18.60
2018-04-14T10:03:54.333Z,18.50
2018-04-14T10:06:22.518Z,18.80
2018-04-14T10:08:50.701Z,18.90
2018-04-14T10:11:18.882Z,19.10
2018-04-14T10:13:47.210Z,18.90
2018-04-14T10:16:15.389Z,19.00
2018-04-14T10:18:43.583Z,18.90
2018-04-14T10:21:11.758Z,19.20
2018-04-14T10:23:39.984Z,19.40
2018-04-14T10:26:08.161Z,19.00
2018-04-14T10:28:36.366Z,18.70
2018-04-14T10:31:05.311Z,18.60
2018-04-14T10:33:33.534Z,18.60
2018-04-14T10:36:02.491Z,18.70
2018-04-14T10:38:30.697Z,18.60
2018-04-14T10:40:59.659Z,19.30
2018-04-14T10:43:27.922Z,19.30
2018-04-14T10:45:56.107Z,19.50
2018-04-14T10:48:24.306Z,19.60
2018-04-14T10:50:52.484Z,19.70
2018-04-14T10:53:20.734Z,19.80
2018-04-14T10:55:48.995Z,19.90
2018-04-14T10:58:17.113Z,19.80
2018-04-14T11:00:46.054Z,19.90
2018-04-14T11:03:14.253Z,19.90
2018-04-14T11:05:42.450Z,20.20
2018-04-14T11:08:10.646Z,20.30
2018-04-14T11:10:38.826Z,20.50
2018-04-14T11:13:07.053Z,20.70
2018-04-14T11:15:35.239Z,21.00
2018-04-14T11:18:03.435Z,21.00
2018-04-14T11:20:32.413Z,21.10
2018-04-14T11:23:00.578Z,21.00
2018-04-14T11:25:28.754Z,20.60
2018-04-14T11:27:56.960Z,20.60
2018-04-14T11:30:25.142Z,20.30
2018-04-14T11:32:53.383Z,20.40
2018-04-14T11:35:21.558Z,20.70
2018-04-14T11:37:49.723Z,20.80
2018-04-14T11:40:17.927Z,20.80
2018-04-14T11:42:46.867Z,21.10
2018-04-14T11:45:15.070Z,21.10
2018-04-14T11:47:43.255Z,21.20
2018-04-14T11:50:12.214Z,21.20
2018-04-14T11:52:41.197Z,21.30
2018-04-14T11:55:09.415Z,21.30
2018-04-14T11:57:38.369Z,21.10
2018-04-14T12:00:06.566Z,21.10
2018-04-14T12:02:34.738Z,21.40
2018-04-14T12:05:02.934Z,21.50
2018-04-14T12:07:31.874Z,22.00
2018-04-14T12:10:00.062Z,22.00
2018-04-14T12:12:28.402Z,21.70
2018-04-14T12:14:56.594Z,21.70
2018-04-14T12:17:24.771Z,22.00
2018-04-14T12:19:52.967Z,22.30
2018-04-14T12:22:21.158Z,21.70
2018-04-14T12:24:49.362Z,21.80
2018-04-14T12:27:17.530Z,22.20
2018-04-14T12:29:46.500Z,22.50
2018-04-14T12:32:15.446Z,21.90
2018-04-14T12:34:43.641Z,21.90
2018-04-14T12:37:13.030Z,22.60
2018-04-14T12:39:41.235Z,22.50
2018-04-14T12:42:09.419Z,22.50
2018-04-14T12:44:37.606Z,22.50
2018-04-14T12:47:06.541Z,22.30
2018-04-14T12:49:34.739Z,22.30
2018-04-14T12:52:02.939Z,22.40
2018-04-14T12:54:31.219Z,22.50
2018-04-14T12:56:59.406Z,22.40
2018-04-14T12:59:28.345Z,22.50
2018-04-14T13:01:56.542Z,22.40
2018-04-14T13:04:24.731Z,22.40
2018-04-14T13:06:52.914Z,22.50
2018-04-14T13:09:21.850Z,22.80
2018-04-14T13:11:50.058Z,22.80
2018-04-14T13:14:18.234Z,22.90
2018-04-14T13:16:46.426Z,22.70
2018-04-14T13:19:15.374Z,23.30
2018-04-14T13:21:43.570Z,23.20
2018-04-14T13:24:11.751Z,22.80
2018-04-14T13:26:39.948Z,22.80
2018-04-14T13:29:08.889Z,22.80
2018-04-14T13:31:37.158Z,22.80
2018-04-14T13:34:05.342Z,23.30
2018-04-14T13:36:33.538Z,23.50
2018-04-14T13:39:01.710Z,23.20
2018-04-14T13:41:29.920Z,22.70
2018-04-14T13:43:58.842Z,22.80
2018-04-14T13:46:27.043Z,22.80
2018-04-14T13:48:55.233Z,22.70
2018-04-14T13:51:23.422Z,22.40
2018-04-14T13:53:52.371Z,22.50
2018-04-14T13:56:20.571Z,22.40
2018-04-14T13:58:48.742Z,22.40
2018-04-14T14:01:16.946Z,21.90
2018-04-14T14:03:45.900Z,21.80
2018-04-14T14:06:14.105Z,21.80
2018-04-14T14:08:43.042Z,21.60
2018-04-14T14:11:11.221Z,21.60
2018-04-14T14:13:39.423Z,21.70
2018-04-14T14:16:07.602Z,21.80
2018-04-14T14:18:35.793Z,21.70
2018-04-14T14:21:03.990Z,21.50
2018-04-14T14:23:32.179Z,21.50
2018-04-14T14:26:00.359Z,21.30
2018-04-14T14:28:28.674Z,21.70
2018-04-14T14:30:57.638Z,21.90
2018-04-14T14:33:25.838Z,21.90
2018-04-14T14:35:54.013Z,21.50
2018-04-14T14:38:22.995Z,21.10
2018-04-14T14:40:51.168Z,21.10
2018-04-14T14:43:19.368Z,21.70
2018-04-14T14:45:48.318Z,21.40
2018-04-14T14:48:16.514Z,21.30
2018-04-14T14:50:44.699Z,21.70
2018-04-14T14:53:12.886Z,22.10
2018-04-14T14:55:41.840Z,22.00
2018-04-14T14:58:10.019Z,22.00
2018-04-14T15:00:38.203Z,21.60
2018-04-14T15:03:06.400Z,21.50
2018-04-14T15:05:35.345Z,21.20
2018-04-14T15:08:03.534Z,21.20
2018-04-14T15:10:31.715Z,21.20
2018-04-14T15:12:59.917Z,21.00
2018-04-14T15:15:28.858Z,20.70
2018-04-14T15:17:57.050Z,20.60
2018-04-14T15:20:25.223Z,20.70
2018-04-14T15:22:53.427Z,20.80
2018-04-14T15:25:22.376Z,20.70
2018-04-14T15:27:50.570Z,20.70
2018-04-14T15:30:18.803Z,20.50
2018-04-14T15:32:47.025Z,20.60
2018-04-14T15:35:15.210Z,20.60
2018-04-14T15:37:44.151Z,20.70
2018-04-14T15:40:12.441Z,20.60
2018-04-14T15:42:40.611Z,20.40
2018-04-14T15:45:08.819Z,20.50
2018-04-14T15:47:36.973Z,20.30
2018-04-14T15:50:05.186Z,20.30
2018-04-14T15:52:34.175Z,20.20
2018-04-14T15:55:02.335Z,20.20
2018-04-14T15:57:30.512Z,20.20
2018-04-14T15:59:58.758Z,20.30
2018-04-14T16:02:26.934Z,20.20
2018-04-14T16:04:55.132Z,20.20
2018-04-14T16:07:23.305Z,20.30
2018-04-14T16:09:52.286Z,20.00
2018-04-14T16:12:20.462Z,20.00
2018-04-14T16:14:48.664Z,20.00
2018-04-14T16:17:17.602Z,19.90
2018-04-14T16:19:46.599Z,19.80
2018-04-14T16:22:14.790Z,19.80
2018-04-14T16:24:42.982Z,19.80
2018-04-14T16:27:11.309Z,19.80
2018-04-14T16:29:39.753Z,19.70
2018-04-14T16:32:07.920Z,19.60
2018-04-14T16:34:36.109Z,19.60
2018-04-14T16:37:05.059Z,19.60
2018-04-14T16:39:33.270Z,19.50
2018-04-14T16:42:02.214Z,19.40
2018-04-14T16:44:30.422Z,19.40
2018-04-14T16:46:58.599Z,19.40
2018-04-14T16:49:27.587Z,19.30
2018-04-14T16:51:55.768Z,19.30
2018-04-14T16:54:23.969Z,19.30
2018-04-14T16:56:52.901Z,19.10
2018-04-14T16:59:21.363Z,19.10
2018-04-14T17:01:49.560Z,19.10
2018-04-14T17:04:17.742Z,19.10
2018-04-14T17:06:45.954Z,19.10
2018-04-14T17:09:14.910Z,19.00
2018-04-14T17:11:43.109Z,19.00
2018-04-14T17:14:11.284Z,18.90
2018-04-14T17:16:39.478Z,18.80
2018-04-14T17:19:07.666Z,18.70
2018-04-14T17:21:35.862Z,18.60
2018-04-14T17:24:04.039Z,18.60
2018-04-14T17:26:32.241Z,18.60
2018-04-14T17:29:00.527Z,18.70
2018-04-14T17:31:29.495Z,18.50
2018-04-14T17:33:57.678Z,18.50
2018-04-14T17:36:25.893Z,18.50
2018-04-14T17:38:54.081Z,18.30
2018-04-14T17:41:22.290Z,18.30
2018-04-14T17:43:50.475Z,18.30
2018-04-14T17:46:18.682Z,18.20
2018-04-14T17:48:46.890Z,18.20
2018-04-14T17:51:15.095Z,18.10
2018-04-14T17:53:43.276Z,18.00
2018-04-14T17:56:11.482Z,18.00
2018-04-14T17:58:39.684Z,17.90
2018-04-14T18:01:07.882Z,17.90
2018-04-14T18:03:36.062Z,17.80
2018-04-14T18:06:04.273Z,17.60
2018-04-14T18:08:32.501Z,17.60
2018-04-14T18:11:00.708Z,17.50
2018-04-14T18:13:28.891Z,17.40
2018-04-14T18:15:57.066Z,17.20
2018-04-14T18:18:25.301Z,17.10
2018-04-14T18:20:53.479Z,17.10
2018-04-14T18:23:21.679Z,17.10
2018-04-14T18:25:49.854Z,17.10
2018-04-14T18:28:18.115Z,17.10
2018-04-14T18:30:46.295Z,16.90
2018-04-14T18:33:14.499Z,16.80
2018-04-14T18:35:43.476Z,16.50
2018-04-14T18:38:11.721Z,16.50
2018-04-14T18:40:39.943Z,16.20
2018-04-14T18:43:08.901Z,16.30
2018-04-14T18:45:37.078Z,16.30
2018-04-14T18:48:05.581Z,16.20
2018-04-14T18:50:33.755Z,16.00
2018-04-14T18:53:01.966Z,15.80
2018-04-14T18:55:30.899Z,15.80
2018-04-14T18:57:59.100Z,15.70
2018-04-14T19:00:28.040Z,15.70
2018-04-14T19:02:56.238Z,15.70
2018-04-14T19:05:24.411Z,15.60
2018-04-14T19:07:52.683Z,15.40
2018-04-14T19:10:20.861Z,15.20
2018-04-14T19:12:49.049Z,15.10
2018-04-14T19:15:17.230Z,15.20
2018-04-14T19:17:45.474Z,15.20
2018-04-14T19:20:13.646Z,15.00
2018-04-14T19:25:16.363Z,14.90
2018-04-14T19:27:44.828Z,15.00
2018-04-14T19:30:13.002Z,14.90
2018-04-14T19:32:41.190Z,14.90
2018-04-14T19:35:09.372Z,14.60
2018-04-14T19:37:37.646Z,14.50
2018-04-14T19:40:05.806Z,14.40
2018-04-14T19:42:33.983Z,14.20
2018-04-14T19:45:02.182Z,14.20
2018-04-14T19:47:30.412Z,14.30
2018-04-14T19:49:58.612Z,14.20
2018-04-14T19:52:26.815Z,14.40
2018-04-14T19:54:55.093Z,14.30
2018-04-14T19:57:23.319Z,14.30
2018-04-14T19:59:51.519Z,14.50
2018-04-14T20:02:19.696Z,14.50
2018-04-14T20:04:47.886Z,14.30
2018-04-14T20:07:16.098Z,14.30
2018-04-14T20:09:44.334Z,14.20
2018-04-14T20:12:12.518Z,14.10
2018-04-14T20:14:40.710Z,13.90
2018-04-14T20:17:08.916Z,14.00
2018-04-14T20:19:37.156Z,14.00
2018-04-14T20:22:05.298Z,14.20
2018-04-14T20:24:33.496Z,14.10
2018-04-14T20:27:01.698Z,13.90
2018-04-14T20:29:29.892Z,14.10
2018-04-14T20:31:58.073Z,14.20
2018-04-14T20:34:26.258Z,14.00
2018-04-14T20:36:54.506Z,13.80
2018-04-14T20:39:22.703Z,13.90
2018-04-14T20:41:50.880Z,14.00
2018-04-14T20:44:19.078Z,13.90
2018-04-14T20:46:47.359Z,13.80
2018-04-14T20:49:15.519Z,13.60
2018-04-14T20:51:43.690Z,13.60
2018-04-14T20:54:11.896Z,13.40
2018-04-14T20:56:40.202Z,13.20
2018-04-14T20:59:08.390Z,13.20
2018-04-14T21:01:36.569Z,13.10
2018-04-14T21:04:04.767Z,13.00
2018-04-14T21:06:33.010Z,12.90
2018-04-14T21:09:01.199Z,12.80
2018-04-14T21:11:29.379Z,12.90
2018-04-14T21:13:57.575Z,13.00
2018-04-14T21:16:25.794Z,12.90
2018-04-14T21:18:53.997Z,12.70
2018-04-14T21:21:22.184Z,12.60
2018-04-14T21:23:50.358Z,12.70
2018-04-14T21:26:18.570Z,12.60
2018-04-14T21:28:47.502Z,12.80
2018-04-14T21:31:15.698Z,12.70
2018-04-14T21:33:43.871Z,12.80
2018-04-14T21:36:12.132Z,12.80
2018-04-14T21:38:40.317Z,12.70
2018-04-14T21:41:08.570Z,12.60
2018-04-14T21:43:36.682Z,12.30
2018-04-14T21:46:05.800Z,12.20
2018-04-14T21:48:34.774Z,12.20
2018-04-14T21:51:02.980Z,12.30
2018-04-14T21:53:31.914Z,12.20
2018-04-14T21:56:00.184Z,12.20
2018-04-14T21:58:28.357Z,12.10
2018-04-14T22:00:56.551Z,12.10
2018-04-14T22:03:24.737Z,12.00
2018-04-14T22:05:52.986Z,11.90
2018-04-14T22:08:21.159Z,11.90
2018-04-14T22:10:49.363Z,11.80
2018-04-14T22:13:18.055Z,11.70
2018-04-14T22:15:46.309Z,11.60
2018-04-14T22:18:14.487Z,11.60
2018-04-14T22:20:42.793Z,11.60
2018-04-14T22:23:10.955Z,11.50
2018-04-14T22:25:39.207Z,11.40
2018-04-14T22:28:07.374Z,11.50
2018-04-14T22:30:35.562Z,11.50
2018-04-14T22:33:03.738Z,11.50
2018-04-14T22:35:31.998Z,11.70
2018-04-14T22:38:00.194Z,11.60
2018-04-14T22:40:28.402Z,11.40
2018-04-14T22:42:57.341Z,11.30
2018-04-14T22:45:25.807Z,11.30
2018-04-14T22:47:53.999Z,11.10
2018-04-14T22:50:22.174Z,11.20
2018-04-14T22:52:50.365Z,11.20
2018-04-14T22:55:18.802Z,11.10
2018-04-14T22:57:46.998Z,11.00
2018-04-14T23:00:15.210Z,11.10
2018-04-14T23:02:43.414Z,11.00
2018-04-14T23:05:11.693Z,10.80
2018-04-14T23:07:40.659Z,10.80
2018-04-14T23:10:08.835Z,10.70
2018-04-14T23:12:37.027Z,10.70
2018-04-14T23:15:05.218Z,10.60
2018-04-14T23:17:33.415Z,10.60
2018-04-14T23:20:01.595Z,10.60
2018-04-14T23:22:29.796Z,10.70
2018-04-14T23:24:58.014Z,10.60
2018-04-14T23:27:26.210Z,10.50
2018-04-14T23:29:54.379Z,10.20
2018-04-14T23:32:22.583Z,10.00
2018-04-14T23:34:50.809Z,10.00
2018-04-14T23:37:18.998Z,10.20
2018-04-14T23:39:47.222Z,10.30
2018-04-14T23:42:15.424Z,10.30
2018-04-14T23:44:44.367Z,10.30
2018-04-14T23:47:12.558Z,10.30
2018-04-14T23:49:40.733Z,10.10
2018-04-14T23:52:08.930Z,9.90
2018-04-14T23:54:37.140Z,10.10
2018-04-14T23:57:05.329Z,10.10
2018-04-14T23:59:33.503Z,10.30
